Aviation Digital Data Service (ADDS)

Output produced by METARs form (1333 UTC 26 May 2018)
found at http://www.aviationweather.gov/adds/metars/
 
MYGF 261030Z 2612/2712 12010KT 9999 SCT020 BKN030 BKN100 
     PROB30 
     TEMPO 2617/2620 14010G20KT 8000 SHRA FEW015CB BKN025 OVC070
       
MYNN 261030Z 2612/2712 14010G20KT 9999 FEW020 SCT030 BKN100 
     PROB30 
     TEMPO 2618/2702 14010G25KT 4800 +SHRA SCT015CB BKN025 OVC070